createdAt,value
2018-12-19T00:01:29.592Z,100950.70
2018-12-19T00:03:58.427Z,100950.19
2018-12-19T00:06:28.992Z,100948.90
2018-12-19T00:09:03.144Z,100945.05
2018-12-19T00:11:26.645Z,100949.17
2018-12-19T00:13:55.425Z,100940.94
2018-12-19T00:16:24.851Z,100941.70
2018-12-19T00:18:53.684Z,100936.56
2018-12-19T00:21:22.555Z,100926.28
2018-12-19T00:23:51.344Z,100932.22
2018-12-19T00:26:20.147Z,100935.28
2018-12-19T00:28:49.875Z,100943.89
2018-12-19T00:31:18.716Z,100933.50
2018-12-19T00:33:47.518Z,100932.70
2018-12-19T00:36:16.296Z,100923.60
2018-12-19T00:38:45.086Z,100910.36
2018-12-19T00:41:13.876Z,100900.08
2018-12-19T00:43:43.581Z,100895.95
2018-12-19T00:46:12.390Z,100898.52
2018-12-19T00:48:41.666Z,100897.61
2018-12-19T00:51:10.446Z,100892.23
2018-12-19T00:53:39.247Z,100886.19
2018-12-19T00:56:08.034Z,100889.28
2018-12-19T00:58:36.844Z,100877.42
2018-12-19T01:01:05.645Z,100874.99
2018-12-19T01:03:34.440Z,100870.23
2018-12-19T01:06:03.986Z,100875.38
2018-12-19T01:08:36.295Z,100861.72
2018-12-19T01:11:05.097Z,100858.77
2018-12-19T01:13:33.890Z,100857.86
2018-12-19T01:16:02.683Z,100851.58
2018-12-19T01:18:31.506Z,100847.47
2018-12-19T01:21:00.276Z,100846.57
2018-12-19T01:23:29.125Z,100854.00
2018-12-19T01:25:57.899Z,100877.95
2018-12-19T01:28:26.695Z,100882.29
2018-12-19T01:30:55.476Z,100895.28
2018-12-19T01:33:24.323Z,100895.81
2018-12-19T01:35:53.116Z,100895.00
2018-12-19T01:38:21.980Z,100905.05
2018-12-19T01:40:50.762Z,100902.09
2018-12-19T01:43:19.563Z,100897.95
2018-12-19T01:45:48.356Z,100902.44
2018-12-19T01:48:17.152Z,100906.95
2018-12-19T01:50:45.964Z,100901.15
2018-12-19T01:53:14.791Z,100893.05
2018-12-19T01:55:43.595Z,100905.63
2018-12-19T01:58:12.396Z,100898.05
2018-12-19T02:00:41.214Z,100899.58
2018-12-19T02:03:09.983Z,100895.34
2018-12-19T02:05:38.853Z,100898.30
2018-12-19T02:08:07.628Z,100892.25
2018-12-19T02:10:36.429Z,100888.39
2018-12-19T02:13:05.219Z,100893.15
2018-12-19T02:15:34.048Z,100888.11
2018-12-19T02:18:02.839Z,100895.58
2018-12-19T02:20:31.661Z,100895.20
2018-12-19T02:23:00.446Z,100893.11
2018-12-19T02:25:29.249Z,100882.44
2018-12-19T02:27:58.077Z,100870.61
2018-12-19T02:30:27.403Z,100876.77
2018-12-19T02:32:56.203Z,100867.37
2018-12-19T02:35:24.974Z,100869.28
2018-12-19T02:37:53.750Z,100859.12
2018-12-19T02:40:23.415Z,100851.92
2018-12-19T02:42:52.844Z,100846.87
2018-12-19T02:45:21.693Z,100846.63
2018-12-19T02:47:50.477Z,100846.97
2018-12-19T02:50:19.261Z,100846.58
2018-12-19T02:52:49.708Z,100839.09
2018-12-19T02:55:18.532Z,100835.98
2018-12-19T02:57:47.307Z,100839.98
2018-12-19T03:00:16.086Z,100830.17
2018-12-19T03:02:45.844Z,100840.22
2018-12-19T03:05:14.630Z,100838.64
2018-12-19T03:07:43.402Z,100838.64
2018-12-19T03:10:12.219Z,100837.48
2018-12-19T03:12:41.017Z,100827.68
2018-12-19T03:15:09.807Z,100826.81
2018-12-19T03:17:38.576Z,100820.77
2018-12-19T03:20:07.372Z,100820.47
2018-12-19T03:22:37.603Z,100819.70
2018-12-19T03:25:06.362Z,100827.42
2018-12-19T03:27:35.234Z,100834.77
2018-12-19T03:30:04.733Z,100838.34
2018-12-19T03:32:33.519Z,100832.94
2018-12-19T03:35:02.312Z,100827.12
2018-12-19T03:37:31.104Z,100813.19
2018-12-19T03:39:59.879Z,100814.19
2018-12-19T03:42:28.691Z,100812.13
2018-12-19T03:44:57.477Z,100807.50
2018-12-19T03:47:26.345Z,100809.78
2018-12-19T03:49:56.050Z,100810.44
2018-12-19T03:52:24.820Z,100810.14
2018-12-19T03:54:54.601Z,100810.53
2018-12-19T03:57:23.403Z,100822.25
2018-12-19T03:59:52.188Z,100827.11
2018-12-19T04:02:21.038Z,100825.73
2018-12-19T04:04:49.884Z,100830.45
2018-12-19T04:07:18.668Z,100837.55
2018-12-19T04:09:48.448Z,100836.73
2018-12-19T04:12:17.238Z,100832.01
2018-12-19T04:14:46.007Z,100825.16
2018-12-19T04:17:14.798Z,100822.09
2018-12-19T04:19:43.594Z,100822.86
2018-12-19T04:22:12.871Z,100824.44
2018-12-19T04:24:41.660Z,100830.88
2018-12-19T04:27:10.496Z,100837.18
2018-12-19T04:29:39.379Z,100834.99
2018-12-19T04:32:08.171Z,100837.05
2018-12-19T04:34:36.955Z,100840.43
2018-12-19T04:37:05.726Z,100845.19
2018-12-19T04:39:35.044Z,100847.63
2018-12-19T04:42:04.518Z,100840.53
2018-12-19T04:44:33.708Z,100832.80
2018-12-19T04:47:02.513Z,100842.72
2018-12-19T04:49:31.618Z,100845.42
2018-12-19T04:52:00.419Z,100846.55
2018-12-19T04:54:29.285Z,100846.27
2018-12-19T04:56:58.053Z,100845.27
2018-12-19T04:59:26.836Z,100844.59
2018-12-19T05:01:55.627Z,100838.55
2018-12-19T05:04:24.415Z,100848.33
2018-12-19T05:06:53.207Z,100847.84
2018-12-19T05:09:22.014Z,100855.05
2018-12-19T05:11:50.819Z,100858.91
2018-12-19T05:14:21.350Z,100865.20
2018-12-19T05:16:50.115Z,100866.09
2018-12-19T05:19:18.907Z,100864.42
2018-12-19T05:21:47.720Z,100868.55
2018-12-19T05:24:16.653Z,100869.44
2018-12-19T05:26:45.443Z,100872.78
2018-12-19T05:29:14.903Z,100862.91
2018-12-19T05:31:44.303Z,100856.34
2018-12-19T05:34:13.083Z,100860.33
2018-12-19T05:36:41.957Z,100859.91
2018-12-19T05:39:11.711Z,100869.73
2018-12-19T05:41:40.922Z,100877.45
2018-12-19T05:44:09.698Z,100864.08
2018-12-19T05:46:38.519Z,100866.12
2018-12-19T05:49:07.310Z,100878.09
2018-12-19T05:51:36.140Z,100871.66
2018-12-19T05:54:04.949Z,100877.70
2018-12-19T05:56:33.760Z,100882.99
2018-12-19T05:59:02.554Z,100884.89
2018-12-19T06:01:31.338Z,100881.16
2018-12-19T06:04:00.141Z,100882.84
2018-12-19T06:06:29.682Z,100882.70
2018-12-19T06:08:58.440Z,100887.47
2018-12-19T06:11:27.320Z,100880.13
2018-12-19T06:13:56.121Z,100888.51
2018-12-19T06:16:27.915Z,100888.51
2018-12-19T06:18:56.818Z,100889.50
2018-12-19T06:21:25.963Z,100890.02
2018-12-19T06:23:54.738Z,100894.27
2018-12-19T06:26:23.549Z,100894.66
2018-12-19T06:28:57.895Z,100895.56
2018-12-19T06:31:26.683Z,100894.37
2018-12-19T06:33:55.482Z,100900.03
2018-12-19T06:36:24.328Z,100903.61
2018-12-19T06:38:53.222Z,100901.30
2018-12-19T06:41:22.011Z,100903.08
2018-12-19T06:43:51.865Z,100911.45
2018-12-19T06:46:20.664Z,100916.84
2018-12-19T06:48:49.444Z,100917.45
2018-12-19T06:51:19.054Z,100917.68
2018-12-19T06:53:47.225Z,100915.63
2018-12-19T06:56:16.006Z,100921.91
2018-12-19T06:58:44.795Z,100922.42
2018-12-19T07:01:13.578Z,100925.09
2018-12-19T07:03:42.380Z,100931.28
2018-12-19T07:06:11.157Z,100930.09
2018-12-19T07:08:41.401Z,100934.09
2018-12-19T07:11:08.739Z,100935.86
2018-12-19T07:13:37.520Z,100941.28
2018-12-19T07:16:06.320Z,100942.14
2018-12-19T07:18:35.118Z,100937.12
2018-12-19T07:21:03.885Z,100937.12
2018-12-19T07:23:32.688Z,100937.35
2018-12-19T07:26:01.466Z,100940.06
2018-12-19T07:28:30.242Z,100950.98
2018-12-19T07:30:59.045Z,100955.08
2018-12-19T07:33:27.843Z,100956.08
2018-12-19T07:35:56.676Z,100960.59
2018-12-19T07:38:25.477Z,100967.13
2018-12-19T07:40:54.285Z,100965.59
2018-12-19T07:43:23.119Z,100969.55
2018-12-19T07:45:51.918Z,100968.78
2018-12-19T07:48:20.720Z,100978.55
2018-12-19T07:50:49.524Z,100976.06
2018-12-19T07:53:18.369Z,100984.45
2018-12-19T07:55:47.166Z,100980.68
2018-12-19T07:58:16.047Z,100985.58
2018-12-19T08:00:44.883Z,100983.75
2018-12-19T08:03:13.732Z,100988.23
2018-12-19T08:05:42.513Z,100994.77
2018-12-19T08:08:11.307Z,100996.31
2018-12-19T08:10:40.101Z,101000.28
2018-12-19T08:13:08.988Z,100999.13
2018-12-19T08:15:37.788Z,100996.77
2018-12-19T08:18:06.585Z,101010.56
2018-12-19T08:20:35.377Z,101013.47
2018-12-19T08:23:05.026Z,101013.98
2018-12-19T08:25:33.895Z,101021.44
2018-12-19T08:28:02.727Z,101017.31
2018-12-19T08:30:31.500Z,101020.89
2018-12-19T08:33:00.299Z,101016.77
2018-12-19T08:35:29.093Z,101019.56
2018-12-19T08:37:57.882Z,101024.44
2018-12-19T08:40:26.731Z,101026.23
2018-12-19T08:42:55.540Z,101027.14
2018-12-19T08:45:24.368Z,101026.46
2018-12-19T08:47:53.199Z,101037.01
2018-12-19T08:50:21.975Z,101038.66
2018-12-19T08:52:50.824Z,101038.03
2018-12-19T08:55:19.607Z,101036.02
2018-12-19T08:57:48.448Z,101039.08
2018-12-19T09:00:17.348Z,101032.98
2018-12-19T09:02:46.271Z,101036.81
2018-12-19T09:05:15.178Z,101039.22
2018-12-19T09:07:43.967Z,101038.24
2018-12-19T09:10:12.805Z,101042.80
2018-12-19T09:12:41.648Z,101040.77
2018-12-19T09:15:10.437Z,101049.94
2018-12-19T09:17:39.238Z,101043.09
2018-12-19T09:20:08.035Z,101048.31
2018-12-19T09:22:36.835Z,101049.82
2018-12-19T09:25:05.652Z,101048.66
2018-12-19T09:27:34.474Z,101051.84
2018-12-19T09:30:03.315Z,101049.58
2018-12-19T09:32:32.205Z,101057.58
2018-12-19T09:35:01.059Z,101058.78
2018-12-19T09:37:30.356Z,101061.33
2018-12-19T09:39:59.188Z,101065.84
2018-12-19T09:42:28.008Z,101070.16
2018-12-19T09:44:56.866Z,101063.86
2018-12-19T09:47:25.675Z,101067.00
2018-12-19T09:49:54.475Z,101070.91
2018-12-19T09:52:23.349Z,101062.68
2018-12-19T09:54:52.295Z,101065.81
2018-12-19T09:57:21.006Z,101052.62
2018-12-19T09:59:49.857Z,101058.75
2018-12-19T10:02:18.630Z,101061.17
2018-12-19T10:04:47.431Z,101063.48
2018-12-19T10:07:16.229Z,101056.54
2018-12-19T10:09:45.063Z,101063.03
2018-12-19T10:12:13.873Z,101059.17
2018-12-19T10:14:42.667Z,101065.06
2018-12-19T10:17:11.464Z,101066.05
2018-12-19T10:19:40.256Z,101065.57
2018-12-19T10:22:09.027Z,101052.89
2018-12-19T10:24:43.204Z,101066.54
2018-12-19T10:27:16.202Z,101069.84
2018-12-19T10:29:45.008Z,101052.84
2018-12-19T10:32:13.792Z,101065.28
2018-12-19T10:34:43.955Z,101066.20
2018-12-19T10:37:12.778Z,101063.81
2018-12-19T10:39:41.569Z,101072.17
2018-12-19T10:42:10.357Z,101075.07
2018-12-19T10:44:39.130Z,101067.61
2018-12-19T10:47:07.930Z,101074.15
2018-12-19T10:49:36.711Z,101075.75
2018-12-19T10:52:05.497Z,101067.98
2018-12-19T10:54:34.301Z,101061.80
2018-12-19T10:57:03.176Z,101060.45
2018-12-19T10:59:32.020Z,101051.24
2018-12-19T11:02:00.872Z,101052.86
2018-12-19T11:04:29.690Z,101052.16
2018-12-19T11:06:58.481Z,101035.83
2018-12-19T11:09:27.268Z,101032.95
2018-12-19T11:11:56.132Z,101025.29
2018-12-19T11:14:24.920Z,101025.97
2018-12-19T11:16:53.714Z,101020.64
2018-12-19T11:19:22.559Z,101011.66
2018-12-19T11:21:51.415Z,101005.45
2018-12-19T11:24:20.191Z,101010.40
2018-12-19T11:26:49.015Z,101002.23
2018-12-19T11:29:17.807Z,100999.53
2018-12-19T11:31:46.619Z,100992.22
2018-12-19T11:34:15.406Z,100990.48
2018-12-19T11:36:44.216Z,100984.33
2018-12-19T11:39:13.007Z,100982.80
2018-12-19T11:41:41.822Z,100985.53
2018-12-19T11:44:10.705Z,100974.27
2018-12-19T11:46:39.502Z,100982.81
2018-12-19T11:49:08.312Z,100976.98
2018-12-19T11:51:37.130Z,100978.06
2018-12-19T11:54:05.971Z,100972.69
2018-12-19T11:56:34.746Z,100976.52
2018-12-19T11:59:03.552Z,100975.21
2018-12-19T12:01:32.342Z,100981.70
2018-12-19T12:04:01.167Z,100981.98
2018-12-19T12:06:29.989Z,100977.23
2018-12-19T12:08:58.769Z,100976.07
2018-12-19T12:11:27.564Z,100971.89
2018-12-19T12:13:56.444Z,100971.28
2018-12-19T12:16:25.301Z,100968.69
2018-12-19T12:18:54.105Z,100971.67
2018-12-19T12:21:23.012Z,100961.73
2018-12-19T12:23:51.875Z,100965.76
2018-12-19T12:26:21.696Z,100959.88
2018-12-19T12:28:50.501Z,100962.58
2018-12-19T12:31:19.284Z,100954.11
2018-12-19T12:33:48.087Z,100956.23
2018-12-19T12:36:16.927Z,100952.95
2018-12-19T12:38:45.756Z,100953.05
2018-12-19T12:41:14.626Z,100948.79
2018-12-19T12:43:43.444Z,100951.09
2018-12-19T12:46:12.256Z,100950.80
2018-12-19T12:48:41.055Z,100952.36
2018-12-19T12:51:09.915Z,100944.51
2018-12-19T12:53:38.756Z,100946.89
2018-12-19T12:56:07.580Z,100948.19
2018-12-19T12:58:36.403Z,100947.36
2018-12-19T13:01:05.191Z,100955.06
2018-12-19T13:03:34.006Z,100943.40
2018-12-19T13:06:02.794Z,100940.30
2018-12-19T13:08:31.622Z,100947.57
2018-12-19T13:11:00.374Z,100943.89
2018-12-19T13:13:29.165Z,100946.48
2018-12-19T13:15:57.951Z,100943.13
2018-12-19T13:18:26.834Z,100949.20
2018-12-19T13:20:55.639Z,100949.20
2018-12-19T13:23:24.435Z,100944.34
2018-12-19T13:25:53.261Z,100941.64
2018-12-19T13:28:23.155Z,100940.74
2018-12-19T13:30:51.922Z,100935.37
2018-12-19T13:33:20.809Z,100934.47
2018-12-19T13:35:49.595Z,100935.97
2018-12-19T13:38:18.495Z,100937.19
2018-12-19T13:40:47.306Z,100926.83
2018-12-19T13:43:16.187Z,100931.31
2018-12-19T13:45:44.991Z,100932.22
2018-12-19T13:48:13.801Z,100935.28
2018-12-19T13:50:42.611Z,100934.48
2018-12-19T13:53:11.473Z,100939.28
2018-12-19T13:55:40.246Z,100935.78
2018-12-19T13:58:09.050Z,100933.98
2018-12-19T14:00:37.929Z,100932.22
2018-12-19T14:03:06.719Z,100927.11
2018-12-19T14:05:35.507Z,100931.58
2018-12-19T14:08:04.296Z,100925.61
2018-12-19T14:10:33.083Z,100934.09
2018-12-19T14:13:01.876Z,100930.20
2018-12-19T14:15:30.740Z,100929.63
2018-12-19T14:17:59.532Z,100933.41
2018-12-19T14:20:28.324Z,100916.58
2018-12-19T14:22:57.122Z,100926.16
2018-12-19T14:25:25.971Z,100924.55
2018-12-19T14:27:54.847Z,100928.64
2018-12-19T14:30:23.723Z,100931.23
2018-12-19T14:32:52.511Z,100934.61
2018-12-19T14:35:21.320Z,100926.05
2018-12-19T14:37:50.140Z,100924.77
2018-12-19T14:40:19.027Z,100923.47
2018-12-19T14:42:47.891Z,100925.55
2018-12-19T14:45:16.790Z,100930.86
2018-12-19T14:47:45.624Z,100929.84
2018-12-19T14:50:14.480Z,100933.53
2018-12-19T14:52:43.268Z,100928.95
2018-12-19T14:55:12.114Z,100931.07
2018-12-19T14:57:40.886Z,100939.63
2018-12-19T15:00:10.534Z,100939.91
2018-12-19T15:02:39.346Z,100934.25
2018-12-19T15:05:08.218Z,100928.25
2018-12-19T15:07:37.023Z,100927.67
2018-12-19T15:10:07.438Z,100929.36
2018-12-19T15:12:36.256Z,100935.83
2018-12-19T15:15:06.398Z,100932.45
2018-12-19T15:17:35.193Z,100930.26
2018-12-19T15:20:04.087Z,100936.22
2018-12-19T15:22:32.888Z,100941.01
2018-12-19T15:25:01.818Z,100933.05
2018-12-19T15:27:30.604Z,100929.95
2018-12-19T15:29:59.462Z,100931.24
2018-12-19T15:32:28.281Z,100941.13
2018-12-19T15:34:57.092Z,100936.55
2018-12-19T15:37:25.912Z,100932.55
2018-12-19T15:39:54.709Z,100931.25
2018-12-19T15:42:23.562Z,100936.03
2018-12-19T15:44:52.383Z,100922.16
2018-12-19T15:47:21.189Z,100934.00
2018-12-19T15:49:50.031Z,100924.75
2018-12-19T15:52:18.828Z,100929.34
2018-12-19T15:54:47.641Z,100924.55
2018-12-19T15:57:16.463Z,100916.59
2018-12-19T15:59:45.359Z,100915.58
2018-12-19T16:02:14.155Z,100920.28
2018-12-19T16:04:42.965Z,100919.38
2018-12-19T16:07:11.779Z,100922.36
2018-12-19T16:09:40.603Z,100920.16
2018-12-19T16:12:09.405Z,100916.98
2018-12-19T16:14:38.233Z,100926.33
2018-12-19T16:17:07.063Z,100919.77
2018-12-19T16:19:35.949Z,100922.88
2018-12-19T16:22:04.900Z,100923.15
2018-12-19T16:24:33.678Z,100911.23
2018-12-19T16:27:02.517Z,100923.55
2018-12-19T16:29:31.338Z,100926.44
2018-12-19T16:32:00.276Z,100924.64
2018-12-19T16:34:30.831Z,100934.20
2018-12-19T16:37:00.885Z,100937.58
2018-12-19T16:39:29.673Z,100937.97
2018-12-19T16:42:03.539Z,100943.45
2018-12-19T16:44:33.440Z,100944.63
2018-12-19T16:47:02.223Z,100945.14
2018-12-19T16:49:31.050Z,100955.30
2018-12-19T16:52:00.948Z,100956.39
2018-12-19T16:54:29.790Z,100960.97
2018-12-19T16:56:58.708Z,100949.52
2018-12-19T16:59:28.673Z,100956.97
2018-12-19T17:01:57.603Z,100955.67
2018-12-19T17:04:26.549Z,100953.47
2018-12-19T17:06:55.411Z,100958.34
2018-12-19T17:09:24.340Z,100954.58
2018-12-19T17:11:53.094Z,100958.77
2018-12-19T17:14:22.575Z,100955.55
2018-12-19T17:16:51.383Z,100958.52
2018-12-19T17:19:20.279Z,100955.63
2018-12-19T17:21:49.151Z,100948.83
2018-12-19T17:24:18.237Z,100955.94
2018-12-19T17:26:47.026Z,100958.62
2018-12-19T17:29:15.840Z,100956.02
2018-12-19T17:31:44.630Z,100951.03
2018-12-19T17:34:13.436Z,100952.08
2018-12-19T17:36:42.230Z,100952.50
2018-12-19T17:39:11.038Z,100949.20
2018-12-19T17:41:39.883Z,100952.95
2018-12-19T17:44:08.672Z,100952.75
2018-12-19T17:46:37.504Z,100960.29
2018-12-19T17:49:06.388Z,100962.27
2018-12-19T17:51:35.207Z,100963.74
2018-12-19T17:54:04.018Z,100960.95
2018-12-19T17:56:39.656Z,100964.58
2018-12-19T17:59:08.451Z,100962.69
2018-12-19T18:01:37.233Z,100962.30
2018-12-19T18:04:06.023Z,100967.59
2018-12-19T18:06:35.335Z,100969.36
2018-12-19T18:09:05.289Z,100966.68
2018-12-19T18:11:34.140Z,100958.72
2018-12-19T18:14:02.967Z,100964.37
2018-12-19T18:16:31.753Z,100962.81
2018-12-19T18:19:00.539Z,100962.50
2018-12-19T18:21:29.392Z,100962.23
2018-12-19T18:23:58.200Z,100966.98
2018-12-19T18:26:27.082Z,100968.01
2018-12-19T18:28:55.959Z,100969.39
2018-12-19T18:31:24.875Z,100975.84
2018-12-19T18:33:53.674Z,100973.27
2018-12-19T18:36:22.470Z,100983.33
2018-12-19T18:38:51.260Z,100967.83
2018-12-19T18:41:20.066Z,100976.09
2018-12-19T18:43:48.872Z,100977.59
2018-12-19T18:46:17.660Z,100976.78
2018-12-19T18:48:46.460Z,100979.36
2018-12-19T18:51:15.238Z,100982.97
2018-12-19T18:53:44.710Z,100981.17
2018-12-19T18:56:13.520Z,100988.66
2018-12-19T18:58:42.329Z,100986.16
2018-12-19T19:01:11.155Z,100991.33
2018-12-19T19:03:39.938Z,100991.06
2018-12-19T19:06:08.815Z,100988.86
2018-12-19T19:08:37.588Z,100988.35
2018-12-19T19:11:06.337Z,100989.25
2018-12-19T19:13:35.137Z,101000.49
2018-12-19T19:16:04.048Z,100995.59
2018-12-19T19:18:32.876Z,100992.02
2018-12-19T19:21:01.687Z,100994.27
2018-12-19T19:23:30.499Z,100981.70
2018-12-19T19:25:59.292Z,100992.13
2018-12-19T19:28:28.103Z,100990.28
2018-12-19T19:30:56.916Z,100986.64
2018-12-19T19:33:25.730Z,100986.30
2018-12-19T19:35:54.519Z,100982.94
2018-12-19T19:38:23.399Z,100990.13
2018-12-19T19:40:52.253Z,100989.13
2018-12-19T19:43:26.501Z,100990.59
2018-12-19T19:45:49.824Z,100987.55
2018-12-19T19:48:18.637Z,100983.63
2018-12-19T19:50:47.501Z,100985.78
2018-12-19T19:53:16.343Z,100988.83
2018-12-19T19:55:45.151Z,100990.55
2018-12-19T19:58:13.956Z,100993.95
2018-12-19T20:00:42.763Z,100993.99
2018-12-19T20:03:11.547Z,100984.12
2018-12-19T20:05:40.397Z,100987.05
2018-12-19T20:08:10.985Z,100988.79
2018-12-19T20:10:39.878Z,100990.14
2018-12-19T20:13:08.686Z,100987.50
2018-12-19T20:15:38.264Z,100987.02
2018-12-19T20:18:09.136Z,100985.41
2018-12-19T20:20:37.915Z,100994.61
2018-12-19T20:23:06.721Z,100988.71
2018-12-19T20:25:35.530Z,100991.45
2018-12-19T20:28:04.363Z,100985.16
2018-12-19T20:30:33.172Z,100983.52
2018-12-19T20:33:01.984Z,100978.91
2018-12-19T20:35:30.777Z,100980.36
2018-12-19T20:37:59.564Z,100977.94
2018-12-19T20:40:28.367Z,100975.91
2018-12-19T20:42:57.216Z,100976.33
2018-12-19T20:45:26.006Z,100977.36
2018-12-19T20:47:56.584Z,100973.27
2018-12-19T20:50:25.376Z,100972.13
2018-12-19T20:52:54.174Z,100972.80
2018-12-19T20:55:23.011Z,100972.19
2018-12-19T20:57:51.795Z,100967.19
2018-12-19T21:00:20.630Z,100973.89
2018-12-19T21:02:49.386Z,100974.44
2018-12-19T21:05:18.171Z,100980.78
2018-12-19T21:07:46.939Z,100979.78
2018-12-19T21:10:15.727Z,100985.19
2018-12-19T21:12:44.515Z,100980.31
2018-12-19T21:15:14.123Z,100973.64
2018-12-19T21:17:48.395Z,100983.05
2018-12-19T21:20:17.187Z,100983.14
2018-12-19T21:22:45.971Z,100976.84
2018-12-19T21:25:14.751Z,100980.31
2018-12-19T21:27:43.542Z,100973.22
2018-12-19T21:30:12.331Z,100977.38
2018-12-19T21:32:41.205Z,100980.63
2018-12-19T21:35:10.015Z,100977.40
2018-12-19T21:37:38.845Z,100977.66
2018-12-19T21:40:07.657Z,100974.12
2018-12-19T21:42:36.403Z,100974.36
2018-12-19T21:45:05.297Z,100982.36
2018-12-19T21:47:34.118Z,100981.39
2018-12-19T21:50:02.906Z,100984.20
2018-12-19T21:52:31.683Z,100978.30
2018-12-19T21:55:01.110Z,100977.30
2018-12-19T21:57:29.954Z,100980.94
2018-12-19T21:59:58.810Z,100974.64
2018-12-19T22:02:27.557Z,100972.61
2018-12-19T22:04:56.299Z,100977.91
2018-12-19T22:07:25.176Z,100973.69
2018-12-19T22:09:54.047Z,100976.03
2018-12-19T22:12:22.811Z,100971.16
2018-12-19T22:14:51.680Z,100969.74
2018-12-19T22:17:25.694Z,100969.51
2018-12-19T22:19:54.448Z,100963.73
2018-12-19T22:22:23.382Z,100969.14
2018-12-19T22:24:52.134Z,100963.89
2018-12-19T22:27:20.900Z,100967.52
2018-12-19T22:29:49.695Z,100968.67
2018-12-19T22:32:18.464Z,100961.48
2018-12-19T22:34:47.296Z,100958.80
2018-12-19T22:37:17.273Z,100956.38
2018-12-19T22:39:45.993Z,100963.20
2018-12-19T22:42:15.490Z,100962.58
2018-12-19T22:44:44.262Z,100962.45
2018-12-19T22:47:13.113Z,100954.63
2018-12-19T22:49:41.862Z,100961.68
2018-12-19T22:52:10.655Z,100959.88
2018-12-19T22:54:39.456Z,100959.88
2018-12-19T22:57:08.992Z,100956.53
2018-12-19T22:59:37.788Z,100954.47
2018-12-19T23:02:12.752Z,100953.95
2018-12-19T23:04:41.528Z,100955.23
2018-12-19T23:07:10.341Z,100951.25
2018-12-19T23:09:39.176Z,100949.19
2018-12-19T23:12:07.987Z,100950.77
2018-12-19T23:14:36.763Z,100940.61
2018-12-19T23:17:16.638Z,100943.43
2018-12-19T23:19:51.204Z,100941.14
2018-12-19T23:22:25.693Z,100935.76
2018-12-19T23:25:00.928Z,100936.77
2018-12-19T23:27:30.299Z,100933.20
2018-12-19T23:29:59.411Z,100935.92
2018-12-19T23:32:29.226Z,100933.35
2018-12-19T23:34:57.991Z,100935.97
2018-12-19T23:37:26.751Z,100937.41
2018-12-19T23:39:56.211Z,100934.59
2018-12-19T23:42:25.112Z,100931.27
2018-12-19T23:44:53.862Z,100928.69
2018-12-19T23:47:22.817Z,100931.54
2018-12-19T23:49:51.532Z,100931.79
2018-12-19T23:52:20.328Z,100931.55
2018-12-19T23:54:49.892Z,100930.12
2018-12-19T23:57:18.727Z,100922.77
2018-12-19T23:59:47.515Z,100930.83
